createdAt,value
2018-08-25T00:01:19.763Z,1.93
2018-08-25T00:03:50.219Z,1.50
2018-08-25T00:06:20.816Z,1.90
2018-08-25T00:08:51.287Z,1.80
2018-08-25T00:11:21.692Z,1.43
2018-08-25T00:13:51.935Z,1.90
2018-08-25T00:16:22.340Z,1.77
2018-08-25T00:18:52.690Z,1.40
2018-08-25T00:21:23.003Z,1.50
2018-08-25T00:23:53.331Z,1.53
2018-08-25T00:26:23.727Z,1.60
2018-08-25T00:28:54.215Z,1.70
2018-08-25T00:31:25.390Z,1.87
2018-08-25T00:33:56.517Z,1.47
2018-08-25T00:36:26.777Z,1.80
2018-08-25T00:38:58.282Z,1.60
2018-08-25T00:41:28.790Z,1.40
2018-08-25T00:43:59.230Z,1.60
2018-08-25T00:46:29.547Z,1.60
2018-08-25T00:49:00.137Z,1.47
2018-08-25T00:51:30.746Z,1.47
2018-08-25T00:54:01.275Z,1.20
2018-08-25T00:56:31.699Z,1.30
2018-08-25T00:59:02.046Z,1.43
2018-08-25T01:01:32.561Z,1.30
2018-08-25T01:04:03.027Z,1.20
2018-08-25T01:06:33.591Z,1.23
2018-08-25T01:09:05.257Z,1.50
2018-08-25T01:11:35.559Z,1.43
2018-08-25T01:14:05.990Z,1.27
2018-08-25T01:16:36.547Z,1.37
2018-08-25T01:19:07.660Z,1.53
2018-08-25T01:21:38.148Z,1.17
2018-08-25T01:24:08.607Z,1.20
2018-08-25T01:26:39.291Z,1.40
2018-08-25T01:29:12.905Z,1.30
2018-08-25T01:31:43.245Z,1.60
2018-08-25T01:34:13.769Z,1.10
2018-08-25T01:36:43.988Z,1.17
2018-08-25T01:39:14.451Z,1.13
2018-08-25T01:41:44.937Z,1.10
2018-08-25T01:44:15.435Z,1.60
2018-08-25T01:46:45.940Z,1.30
2018-08-25T01:49:16.283Z,1.33
2018-08-25T01:51:46.680Z,1.60
2018-08-25T01:54:17.136Z,1.03
2018-08-25T01:56:47.815Z,1.20
2018-08-25T01:59:18.503Z,1.13
2018-08-25T02:01:48.816Z,1.10
2018-08-25T02:04:19.154Z,1.20
2018-08-25T02:06:49.655Z,1.13
2018-08-25T02:09:20.159Z,1.30
2018-08-25T02:11:50.664Z,1.27
2018-08-25T02:14:20.843Z,1.10
2018-08-25T02:16:51.295Z,1.00
2018-08-25T02:19:21.795Z,0.97
2018-08-25T02:21:52.402Z,1.30
2018-08-25T02:24:22.906Z,1.20
2018-08-25T02:26:53.111Z,1.00
2018-08-25T02:29:23.359Z,1.27
2018-08-25T02:31:53.810Z,1.17
2018-08-25T02:34:24.220Z,1.30
2018-08-25T02:36:54.449Z,1.33
2018-08-25T02:39:24.896Z,1.17
2018-08-25T02:41:55.311Z,1.20
2018-08-25T02:44:25.755Z,1.70
2018-08-25T02:46:56.756Z,1.50
2018-08-25T02:49:27.384Z,1.37
2018-08-25T02:51:57.847Z,1.33
2018-08-25T02:54:29.127Z,1.10
2018-08-25T02:56:59.496Z,1.10
2018-08-25T02:59:29.882Z,1.17
2018-08-25T03:02:00.485Z,1.43
2018-08-25T03:04:30.722Z,0.90
2018-08-25T03:07:01.009Z,1.00
2018-08-25T03:09:31.507Z,1.10
2018-08-25T03:12:01.797Z,1.40
2018-08-25T03:14:32.192Z,1.40
2018-08-25T03:17:02.557Z,1.53
2018-08-25T03:19:33.019Z,1.20
2018-08-25T03:22:03.829Z,1.27
2018-08-25T03:24:34.382Z,1.00
2018-08-25T03:27:04.988Z,1.57
2018-08-25T03:29:35.348Z,1.30
2018-08-25T03:32:05.763Z,1.53
2018-08-25T03:34:36.156Z,1.47
2018-08-25T03:37:06.656Z,1.20
2018-08-25T03:39:37.176Z,1.80
2018-08-25T03:42:07.728Z,1.20
2018-08-25T03:44:38.011Z,1.30
2018-08-25T03:47:08.342Z,1.60
2018-08-25T03:49:38.769Z,1.60
2018-08-25T03:52:09.113Z,1.53
2018-08-25T03:54:39.463Z,1.43
2018-08-25T03:57:09.859Z,1.37
2018-08-25T03:59:40.304Z,1.40
2018-08-25T04:02:10.607Z,1.60
2018-08-25T04:04:41.772Z,1.10
2018-08-25T04:07:12.090Z,1.37
2018-08-25T04:09:42.573Z,1.70
2018-08-25T04:12:12.851Z,1.27
2018-08-25T04:14:43.493Z,1.40
2018-08-25T04:17:13.704Z,1.40
2018-08-25T04:19:44.273Z,1.40
2018-08-25T04:22:14.709Z,1.70
2018-08-25T04:24:45.000Z,1.60
2018-08-25T04:27:15.320Z,1.93
2018-08-25T04:29:45.802Z,1.50
2018-08-25T04:32:16.191Z,1.33
2018-08-25T04:34:46.608Z,2.50
2018-08-25T04:37:16.949Z,1.37
2018-08-25T04:39:47.554Z,1.50
2018-08-25T04:42:17.917Z,1.50
2018-08-25T04:44:48.322Z,1.50
2018-08-25T04:47:18.563Z,1.67
2018-08-25T04:49:49.015Z,1.73
2018-08-25T04:52:19.484Z,1.50
2018-08-25T04:54:50.043Z,1.40
2018-08-25T04:57:20.531Z,1.37
2018-08-25T04:59:50.993Z,1.50
2018-08-25T05:02:21.238Z,1.43
2018-08-25T05:04:52.199Z,1.67
2018-08-25T05:07:22.601Z,1.53
2018-08-25T05:09:53.188Z,1.50
2018-08-25T05:12:23.508Z,1.37
2018-08-25T05:14:53.884Z,1.63
2018-08-25T05:17:24.204Z,1.77
2018-08-25T05:19:54.596Z,2.20
2018-08-25T05:22:24.979Z,1.27
2018-08-25T05:24:55.530Z,1.90
2018-08-25T05:27:25.977Z,1.60
2018-08-25T05:29:56.295Z,1.87
2018-08-25T05:32:26.607Z,1.10
2018-08-25T05:34:57.196Z,1.37
2018-08-25T05:37:27.644Z,1.43
2018-08-25T05:39:58.114Z,1.93
2018-08-25T05:42:28.617Z,1.43
2018-08-25T05:44:59.040Z,1.50
2018-08-25T05:47:29.547Z,1.50
2018-08-25T05:49:59.912Z,1.90
2018-08-25T05:52:30.401Z,1.77
2018-08-25T05:55:00.869Z,1.80
2018-08-25T05:57:31.465Z,1.93
2018-08-25T06:00:02.070Z,2.20
2018-08-25T06:02:32.521Z,1.63
2018-08-25T06:05:02.888Z,1.50
2018-08-25T06:07:33.249Z,1.40
2018-08-25T06:10:03.762Z,1.90
2018-08-25T06:12:34.840Z,1.60
2018-08-25T06:15:05.319Z,2.00
2018-08-25T06:17:35.827Z,1.83
2018-08-25T06:20:06.525Z,1.60
2018-08-25T06:22:37.080Z,1.90
2018-08-25T06:25:09.201Z,1.67
2018-08-25T06:27:45.468Z,1.57
2018-08-25T06:30:15.995Z,1.93
2018-08-25T06:32:46.456Z,1.70
2018-08-25T06:35:16.937Z,1.73
2018-08-25T06:37:47.464Z,1.80
2018-08-25T06:40:18.435Z,1.63
2018-08-25T06:42:49.029Z,2.00
2018-08-25T06:45:19.427Z,1.90
2018-08-25T06:47:49.756Z,1.87
2018-08-25T06:50:20.218Z,1.97
2018-08-25T06:52:50.549Z,1.37
2018-08-25T06:55:20.973Z,2.03
2018-08-25T06:57:51.265Z,1.80
2018-08-25T07:00:21.868Z,1.80
2018-08-25T07:02:52.361Z,1.53
2018-08-25T07:05:22.763Z,1.80
2018-08-25T07:07:53.132Z,1.40
2018-08-25T07:10:23.496Z,1.60
2018-08-25T07:12:53.927Z,1.90
2018-08-25T07:15:24.366Z,1.70
2018-08-25T07:17:54.752Z,1.63
2018-08-25T07:20:25.112Z,1.60
2018-08-25T07:22:55.411Z,1.33
2018-08-25T07:25:25.978Z,1.60
2018-08-25T07:27:56.539Z,1.43
2018-08-25T07:30:26.971Z,1.53
2018-08-25T07:32:57.206Z,1.80
2018-08-25T07:35:27.592Z,1.73
2018-08-25T07:37:58.203Z,1.40
2018-08-25T07:40:28.605Z,1.70
2018-08-25T07:42:59.402Z,1.50
2018-08-25T07:45:29.720Z,1.53
2018-08-25T07:48:00.133Z,1.70
2018-08-25T07:50:30.563Z,1.43
2018-08-25T07:53:01.041Z,1.60
2018-08-25T07:55:31.551Z,1.00
2018-08-25T07:58:02.116Z,1.10
2018-08-25T08:00:32.882Z,1.27
2018-08-25T08:03:03.250Z,1.20
2018-08-25T08:05:33.467Z,1.70
2018-08-25T08:08:03.924Z,1.33
2018-08-25T08:10:34.380Z,1.00
2018-08-25T08:13:05.008Z,1.30
2018-08-25T08:15:35.701Z,0.97
2018-08-25T08:18:06.228Z,1.10
2018-08-25T08:20:36.633Z,1.47
2018-08-25T08:23:35.901Z,1.10
2018-08-25T08:26:06.780Z,1.03
2018-08-25T08:28:37.123Z,1.23
2018-08-25T08:31:07.580Z,1.27
2018-08-25T08:33:37.939Z,1.73
2018-08-25T08:36:08.427Z,1.70
2018-08-25T08:38:40.164Z,1.40
2018-08-25T08:41:10.496Z,1.70
2018-08-25T08:43:40.782Z,1.13
2018-08-25T08:46:11.357Z,1.07
2018-08-25T08:48:41.896Z,1.57
2018-08-25T08:51:12.482Z,1.37
2018-08-25T08:53:42.963Z,1.37
2018-08-25T08:56:13.407Z,1.20
2018-08-25T08:58:43.773Z,1.30
2018-08-25T09:01:14.176Z,1.50
2018-08-25T09:03:44.884Z,1.30
2018-08-25T09:06:15.349Z,0.80
2018-08-25T09:08:45.723Z,0.70
2018-08-25T09:11:16.115Z,1.33
2018-08-25T09:13:46.470Z,1.20
2018-08-25T09:16:16.829Z,0.80
2018-08-25T09:18:47.165Z,1.10
2018-08-25T09:21:17.408Z,1.13
2018-08-25T09:23:48.173Z,1.20
2018-08-25T09:26:18.647Z,0.83
2018-08-25T09:28:48.976Z,0.90
2018-08-25T09:31:19.436Z,0.87
2018-08-25T09:33:50.087Z,1.20
2018-08-25T09:36:21.225Z,0.90
2018-08-25T09:38:51.992Z,0.80
2018-08-25T09:41:22.661Z,1.40
2018-08-25T09:43:53.188Z,0.87
2018-08-25T09:46:23.543Z,0.97
2018-08-25T09:48:53.836Z,0.77
2018-08-25T09:51:24.223Z,1.33
2018-08-25T09:53:54.832Z,0.90
2018-08-25T09:56:25.296Z,0.70
2018-08-25T09:58:56.025Z,0.73
2018-08-25T10:01:32.825Z,0.80
2018-08-25T10:04:03.449Z,0.97
2018-08-25T10:06:34.024Z,0.90
2018-08-25T10:09:05.260Z,0.93
2018-08-25T10:11:35.864Z,1.07
2018-08-25T10:14:06.860Z,1.10
2018-08-25T10:16:37.281Z,1.13
2018-08-25T10:19:07.829Z,1.17
2018-08-25T10:21:38.120Z,1.10
2018-08-25T10:24:08.619Z,1.10
2018-08-25T10:26:39.061Z,0.90
2018-08-25T10:29:09.600Z,1.20
2018-08-25T10:31:40.072Z,1.20
2018-08-25T10:34:10.597Z,1.13
2018-08-25T10:36:41.057Z,0.90
2018-08-25T10:39:12.857Z,0.90
2018-08-25T10:41:43.531Z,1.20
2018-08-25T10:44:14.007Z,1.20
2018-08-25T10:46:44.883Z,1.10
2018-08-25T10:49:15.361Z,1.20
2018-08-25T10:51:45.977Z,1.10
2018-08-25T10:54:16.471Z,1.17
2018-08-25T10:56:46.843Z,0.73
2018-08-25T10:59:17.176Z,1.17
2018-08-25T11:01:47.716Z,1.00
2018-08-25T11:04:18.030Z,0.80
2018-08-25T11:06:48.295Z,1.03
2018-08-25T11:09:18.711Z,0.93
2018-08-25T11:11:49.224Z,0.87
2018-08-25T11:14:20.468Z,1.00
2018-08-25T11:16:50.880Z,1.10
2018-08-25T11:19:21.435Z,0.87
2018-08-25T11:21:51.859Z,1.10
2018-08-25T11:24:22.256Z,1.10
2018-08-25T11:26:52.617Z,1.13
2018-08-25T11:29:23.120Z,1.00
2018-08-25T11:31:53.548Z,0.83
2018-08-25T11:34:24.075Z,1.10
2018-08-25T11:36:54.627Z,1.33
2018-08-25T11:39:25.087Z,1.17
2018-08-25T11:41:55.296Z,1.40
2018-08-25T11:44:25.767Z,1.30
2018-08-25T11:46:56.136Z,2.80
2018-08-25T11:49:26.557Z,2.40
2018-08-25T11:51:56.808Z,1.83
2018-08-25T11:54:27.471Z,1.30
2018-08-25T11:56:57.853Z,1.03
2018-08-25T11:59:28.253Z,0.77
2018-08-25T12:01:58.756Z,0.57
2018-08-25T12:04:29.021Z,0.80
2018-08-25T12:06:59.503Z,0.60
2018-08-25T12:09:30.001Z,0.80
2018-08-25T12:12:00.457Z,0.83
2018-08-25T12:14:30.771Z,0.50
2018-08-25T12:17:01.315Z,0.60
2018-08-25T12:19:31.904Z,1.10
2018-08-25T12:22:02.375Z,0.77
2018-08-25T12:24:32.943Z,1.00
2018-08-25T12:27:04.008Z,1.10
2018-08-25T12:29:34.656Z,1.40
2018-08-25T12:32:05.041Z,0.77
2018-08-25T12:34:35.303Z,1.07
2018-08-25T12:37:05.922Z,0.77
2018-08-25T12:39:36.280Z,1.10
2018-08-25T12:42:06.894Z,0.80
2018-08-25T12:44:37.316Z,1.37
2018-08-25T12:47:07.719Z,1.10
2018-08-25T12:49:38.128Z,1.00
2018-08-25T12:52:08.785Z,1.07
2018-08-25T12:54:39.330Z,1.17
2018-08-25T12:57:09.727Z,1.30
2018-08-25T12:59:39.968Z,1.30
2018-08-25T13:02:10.439Z,1.13
2018-08-25T13:04:42.295Z,1.43
2018-08-25T13:07:13.804Z,0.90
2018-08-25T13:09:45.154Z,0.90
2018-08-25T13:12:15.484Z,0.80
2018-08-25T13:14:45.783Z,0.70
2018-08-25T13:17:16.035Z,0.50
2018-08-25T13:19:46.418Z,0.40
2018-08-25T13:22:16.869Z,0.50
2018-08-25T13:24:47.671Z,0.50
2018-08-25T13:27:18.103Z,0.47
2018-08-25T13:29:48.633Z,0.60
2018-08-25T13:32:19.099Z,0.50
2018-08-25T13:34:49.335Z,0.50
2018-08-25T13:37:19.843Z,0.60
2018-08-25T13:39:50.257Z,0.60
2018-08-25T13:42:20.627Z,0.60
2018-08-25T13:44:50.972Z,0.60
2018-08-25T13:47:21.476Z,0.60
2018-08-25T13:49:51.964Z,0.50
2018-08-25T13:52:22.436Z,0.40
2018-08-25T13:54:53.940Z,0.50
2018-08-25T13:57:24.400Z,0.40
2018-08-25T13:59:54.689Z,0.50
2018-08-25T14:02:25.295Z,0.40
2018-08-25T14:04:55.914Z,0.40
2018-08-25T14:07:26.238Z,0.60
2018-08-25T14:09:56.624Z,0.50
2018-08-25T14:12:27.496Z,0.60
2018-08-25T14:14:57.907Z,0.60
2018-08-25T14:17:28.348Z,0.50
2018-08-25T14:19:58.704Z,0.40
2018-08-25T14:22:29.092Z,0.63
2018-08-25T14:24:59.626Z,0.50
2018-08-25T14:27:30.034Z,0.53
2018-08-25T14:30:00.548Z,0.73
2018-08-25T14:32:31.057Z,0.50
2018-08-25T14:35:01.619Z,0.70
2018-08-25T14:37:32.204Z,0.70
2018-08-25T14:40:02.456Z,0.70
2018-08-25T14:42:32.831Z,0.70
2018-08-25T14:45:03.387Z,0.70
2018-08-25T14:47:33.912Z,0.60
2018-08-25T14:50:04.636Z,0.60
2018-08-25T14:52:34.971Z,0.90
2018-08-25T14:55:05.778Z,0.60
2018-08-25T14:57:36.140Z,0.50
2018-08-25T15:00:06.695Z,0.93
2018-08-25T15:02:37.136Z,0.50
2018-08-25T15:05:08.672Z,0.60
2018-08-25T15:07:38.946Z,0.60
2018-08-25T15:10:09.435Z,0.60
2018-08-25T15:12:39.862Z,0.90
2018-08-25T15:15:10.488Z,0.80
2018-08-25T15:17:40.868Z,0.67
2018-08-25T15:20:11.292Z,0.70
2018-08-25T15:22:41.871Z,0.77
2018-08-25T15:25:12.474Z,0.70
2018-08-25T15:27:42.984Z,0.70
2018-08-25T15:30:13.524Z,0.70
2018-08-25T15:32:43.935Z,0.67
2018-08-25T15:35:14.396Z,0.80
2018-08-25T15:37:44.856Z,0.90
2018-08-25T15:40:15.402Z,1.20
2018-08-25T15:42:45.863Z,1.20
2018-08-25T15:45:16.424Z,0.87
2018-08-25T15:47:46.826Z,0.80
2018-08-25T15:50:17.196Z,0.67
2018-08-25T15:52:47.766Z,0.83
2018-08-25T15:55:18.338Z,0.63
2018-08-25T15:57:48.836Z,0.67
2018-08-25T16:00:19.248Z,0.90
2018-08-25T16:02:49.797Z,0.70
2018-08-25T16:05:20.244Z,0.60
2018-08-25T16:07:50.620Z,0.80
2018-08-25T16:10:21.307Z,0.60
2018-08-25T16:12:51.663Z,0.60
2018-08-25T16:15:22.212Z,0.80
2018-08-25T16:17:52.756Z,0.60
2018-08-25T16:20:23.139Z,0.60
2018-08-25T16:22:53.471Z,0.40
2018-08-25T16:25:23.892Z,0.70
2018-08-25T16:27:54.355Z,0.87
2018-08-25T16:30:24.793Z,0.77
2018-08-25T16:32:55.282Z,0.57
2018-08-25T16:35:25.632Z,0.50
2018-08-25T16:37:56.057Z,0.80
2018-08-25T16:40:26.555Z,0.77
2018-08-25T16:42:57.028Z,0.50
2018-08-25T16:45:27.386Z,0.83
2018-08-25T16:47:57.775Z,1.10
2018-08-25T16:50:28.113Z,0.73
2018-08-25T16:52:58.431Z,0.60
2018-08-25T16:55:29.624Z,0.73
2018-08-25T16:58:00.021Z,0.60
2018-08-25T17:00:30.502Z,0.60
2018-08-25T17:03:00.973Z,0.80
2018-08-25T17:05:31.228Z,0.80
2018-08-25T17:08:01.420Z,0.70
2018-08-25T17:10:31.865Z,0.80
2018-08-25T17:13:02.183Z,0.90
2018-08-25T17:15:32.453Z,0.87
2018-08-25T17:18:03.041Z,0.60
2018-08-25T17:20:33.539Z,0.70
2018-08-25T17:23:03.807Z,0.60
2018-08-25T17:25:33.995Z,0.70
2018-08-25T17:28:04.473Z,0.67
2018-08-25T17:30:34.785Z,0.80
2018-08-25T17:33:05.221Z,0.77
2018-08-25T17:35:35.803Z,0.60
2018-08-25T17:38:06.661Z,0.80
2018-08-25T17:40:36.924Z,0.60
2018-08-25T17:43:07.498Z,0.70
2018-08-25T17:45:38.068Z,0.70
2018-08-25T17:48:08.626Z,0.70
2018-08-25T17:50:39.077Z,1.17
2018-08-25T17:53:09.596Z,0.80
2018-08-25T17:55:40.449Z,0.87
2018-08-25T17:58:10.712Z,0.70
2018-08-25T18:00:41.200Z,0.57
2018-08-25T18:03:11.925Z,0.60
2018-08-25T18:06:08.245Z,0.90
2018-08-25T18:08:38.705Z,0.73
2018-08-25T18:11:09.039Z,1.13
2018-08-25T18:13:39.443Z,0.70
2018-08-25T18:16:09.834Z,1.10
2018-08-25T18:18:40.440Z,0.70
2018-08-25T18:21:11.031Z,0.70
2018-08-25T18:23:41.394Z,0.60
2018-08-25T18:26:11.739Z,0.90
2018-08-25T18:28:44.999Z,0.73
2018-08-25T18:31:15.444Z,0.60
2018-08-25T18:33:46.009Z,0.60
2018-08-25T18:36:16.580Z,0.70
2018-08-25T18:38:52.465Z,0.90
2018-08-25T18:41:22.833Z,0.90
2018-08-25T18:43:53.524Z,0.70
2018-08-25T18:46:24.584Z,0.90
2018-08-25T18:48:55.047Z,0.87
2018-08-25T18:51:25.760Z,0.70
2018-08-25T18:53:56.389Z,0.90
2018-08-25T18:56:26.935Z,0.70
2018-08-25T18:58:57.440Z,0.90
2018-08-25T19:01:27.895Z,0.80
2018-08-25T19:03:58.320Z,0.90
2018-08-25T19:06:28.775Z,1.10
2018-08-25T19:08:59.359Z,0.70
2018-08-25T19:11:29.805Z,0.87
2018-08-25T19:14:00.441Z,0.80
2018-08-25T19:16:30.895Z,0.87
2018-08-25T19:19:01.580Z,0.90
2018-08-25T19:21:32.141Z,0.87
2018-08-25T19:24:02.718Z,0.97
2018-08-25T19:26:33.315Z,0.83
2018-08-25T19:29:03.957Z,1.10
2018-08-25T19:31:34.387Z,0.90
2018-08-25T19:34:04.880Z,1.20
2018-08-25T19:36:35.448Z,1.10
2018-08-25T19:39:08.700Z,1.00
2018-08-25T19:41:39.254Z,1.10
2018-08-25T19:44:09.349Z,1.10
2018-08-25T19:46:39.396Z,0.97
2018-08-25T19:49:09.597Z,1.50
2018-08-25T19:51:39.675Z,1.03
2018-08-25T19:54:09.964Z,1.20
2018-08-25T19:56:40.413Z,1.00
2018-08-25T19:59:11.053Z,0.93
2018-08-25T20:01:41.785Z,1.30
2018-08-25T20:04:12.600Z,1.37
2018-08-25T20:06:43.179Z,0.90
2018-08-25T20:09:13.693Z,1.10
2018-08-25T20:11:44.242Z,1.20
2018-08-25T20:14:14.536Z,1.00
2018-08-25T20:16:44.912Z,1.10
2018-08-25T20:19:15.514Z,1.10
2018-08-25T20:21:46.043Z,0.90
2018-08-25T20:24:16.472Z,1.10
2018-08-25T20:26:47.035Z,1.07
2018-08-25T20:29:17.568Z,1.20
2018-08-25T20:31:48.077Z,1.13
2018-08-25T20:34:18.531Z,0.90
2018-08-25T20:36:49.031Z,1.40
2018-08-25T20:39:19.510Z,1.03
2018-08-25T20:41:50.049Z,1.30
2018-08-25T20:44:21.297Z,1.10
2018-08-25T20:46:51.792Z,0.80
2018-08-25T20:49:22.306Z,0.70
2018-08-25T20:51:52.982Z,1.10
2018-08-25T20:54:24.288Z,1.43
2018-08-25T20:56:54.868Z,0.90
2018-08-25T20:59:43.314Z,1.13
2018-08-25T21:02:13.623Z,1.30
2018-08-25T21:04:44.100Z,1.20
2018-08-25T21:07:14.802Z,1.07
2018-08-25T21:09:45.219Z,1.20
2018-08-25T21:12:15.315Z,1.00
2018-08-25T21:14:45.369Z,1.20
2018-08-25T21:17:15.427Z,1.70
2018-08-25T21:19:45.511Z,1.27
2018-08-25T21:22:15.934Z,1.00
2018-08-25T21:24:46.480Z,1.60
2018-08-25T21:27:16.989Z,1.03
2018-08-25T21:29:47.201Z,1.00
2018-08-25T21:32:17.736Z,1.17
2018-08-25T21:34:48.212Z,1.00
2018-08-25T21:37:18.711Z,1.90
2018-08-25T21:39:49.362Z,3.50
2018-08-25T21:42:19.992Z,4.10
2018-08-25T21:44:50.652Z,3.07
2018-08-25T21:47:21.186Z,2.40
2018-08-25T21:49:51.470Z,1.60
2018-08-25T21:52:21.871Z,1.50
2018-08-25T21:54:52.292Z,1.60
2018-08-25T21:57:22.887Z,1.60
2018-08-25T21:59:53.264Z,1.57
2018-08-25T22:02:23.667Z,1.60
2018-08-25T22:04:54.015Z,1.80
2018-08-25T22:07:24.420Z,2.20
2018-08-25T22:09:54.908Z,2.10
2018-08-25T22:12:25.307Z,2.30
2018-08-25T22:14:55.649Z,1.90
2018-08-25T22:17:26.069Z,1.77
2018-08-25T22:19:56.532Z,1.63
2018-08-25T22:22:27.138Z,1.57
2018-08-25T22:24:57.724Z,1.40
2018-08-25T22:27:28.328Z,1.60
2018-08-25T22:29:58.787Z,1.40
2018-08-25T22:32:29.444Z,1.53
2018-08-25T22:34:59.846Z,1.30
2018-08-25T22:37:30.240Z,1.13
2018-08-25T22:40:00.576Z,1.30
2018-08-25T22:42:31.031Z,1.17
2018-08-25T22:45:01.351Z,1.50
2018-08-25T22:47:31.787Z,1.00
2018-08-25T22:50:01.989Z,1.03
2018-08-25T22:52:37.520Z,1.10
2018-08-25T22:55:08.108Z,0.80
2018-08-25T22:57:38.492Z,1.07
2018-08-25T23:00:09.085Z,1.10
2018-08-25T23:02:40.989Z,1.13
2018-08-25T23:05:11.451Z,0.87
2018-08-25T23:07:41.786Z,1.37
2018-08-25T23:10:12.287Z,0.90
2018-08-25T23:12:42.684Z,1.30
2018-08-25T23:15:13.187Z,1.20
2018-08-25T23:17:43.513Z,1.23
2018-08-25T23:20:13.980Z,1.37
2018-08-25T23:22:44.440Z,1.00
2018-08-25T23:25:15.032Z,1.10
2018-08-25T23:27:45.528Z,0.90
2018-08-25T23:30:15.799Z,1.10
2018-08-25T23:32:46.357Z,1.00
2018-08-25T23:35:16.847Z,1.50
2018-08-25T23:37:47.350Z,1.07
2018-08-25T23:40:17.607Z,1.17
2018-08-25T23:42:47.803Z,1.00
2018-08-25T23:45:18.283Z,1.50
2018-08-25T23:47:48.748Z,1.20
2018-08-25T23:50:19.243Z,1.13
2018-08-25T23:52:50.051Z,1.00
2018-08-25T23:55:20.422Z,1.20
2018-08-25T23:57:50.897Z,0.83
